sensor_id;sensor_type;location;lat;lon;timestamp;pressure;altitude;pressure_sealevel;temperature;humidity
68320;BME280;55168;51.120;17.024;2023-08-06T00:00:00;99130;;;14.4;100.0
68320;BME280;55168;51.120;17.024;2023-08-06T00:01:00;99140;;;14.4;100.0
68320;BME280;55168;51.120;17.024;2023-08-06T00:02:00;99140;;;14.3;100.0
68320;BME280;55168;51.120;17.024;2023-08-06T00:03:00;99140;;;14.3;100.0
68320;BME280;55168;51.120;17.024;2023-08-06T00:04:00;99140;;;14.4;100.0
68320;BME280;55168;51.120;17.024;2023-08-06T00:05:00;99130;;;14.3;100.0
68320;BME280;55168;51.120;17.024;2023-08-06T00:06:00;99140;;;14.4;100.0
68320;BME280;55168;51.120;17.024;2023-08-06T00:07:00;99140;;;14.4;100.0
68320;BME280;55168;51.120;17.024;2023-08-06T00:08:00;99130;;;14.4;100.0
68320;BME280;55168;51.120;17.024;2023-08-06T00:09:00;99130;;;14.4;100.0
68320;BME280;55168;51.120;17.024;2023-08-06T00:10:00;99130;;;14.3;100.0
68320;BME280;55168;51.120;17.024;2023-08-06T00:11:00;99130;;;14.4;100.0
68320;BME280;55168;51.120;17.024;2023-08-06T00:12:00;99120;;;14.4;100.0
68320;BME280;55168;51.120;17.024;2023-08-06T00:13:00;99120;;;14.4;100.0
68320;BME280;55168;51.120;17.024;2023-08-06T00:14:00;99110;;;14.4;100.0
68320;BME280;55168;51.120;17.024;2023-08-06T00:15:00;99110;;;14.4;100.0
68320;BME280;55168;51.120;17.024;2023-08-06T00:16:15;99110;;;14.4;100.0
68320;BME280;55168;51.120;17.024;2023-08-06T00:17:00;99110;;;14.4;100.0
68320;BME280;55168;51.120;17.024;2023-08-06T00:18:00;99100;;;14.5;100.0
68320;BME280;55168;51.120;17.024;2023-08-06T00:19:00;99120;;;14.4;100.0
68320;BME280;55168;51.120;17.024;2023-08-06T00:20:00;99110;;;14.3;100.0
68320;BME280;55168;51.120;17.024;2023-08-06T00:21:00;99110;;;14.3;100.0
68320;BME280;55168;51.120;17.024;2023-08-06T00:22:00;99110;;;14.4;100.0
68320;BME280;55168;51.120;17.024;2023-08-06T00:23:00;99100;;;14.4;100.0
68320;BME280;55168;51.120;17.024;2023-08-06T00:24:00;99110;;;14.3;100.0
68320;BME280;55168;51.120;17.024;2023-08-06T00:25:00;99100;;;14.3;100.0
68320;BME280;55168;51.120;17.024;2023-08-06T00:26:00;99100;;;14.3;100.0
68320;BME280;55168;51.120;17.024;2023-08-06T00:27:00;99100;;;14.3;100.0
68320;BME280;55168;51.120;17.024;2023-08-06T00:28:00;99110;;;14.4;100.0
68320;BME280;55168;51.120;17.024;2023-08-06T00:29:00;99100;;;14.4;100.0
68320;BME280;55168;51.120;17.024;2023-08-06T00:30:00;99100;;;14.4;100.0
68320;BME280;55168;51.120;17.024;2023-08-06T00:31:00;99090;;;14.3;100.0
68320;BME280;55168;51.120;17.024;2023-08-06T00:32:00;99090;;;14.3;100.0
68320;BME280;55168;51.120;17.024;2023-08-06T00:33:00;99080;;;14.3;100.0
68320;BME280;55168;51.120;17.024;2023-08-06T00:34:00;99080;;;14.3;100.0
68320;BME280;55168;51.120;17.024;2023-08-06T00:35:00;99080;;;14.3;100.0
68320;BME280;55168;51.120;17.024;2023-08-06T00:36:00;99070;;;14.3;100.0
68320;BME280;55168;51.120;17.024;2023-08-06T00:37:00;99080;;;14.3;100.0
68320;BME280;55168;51.120;17.024;2023-08-06T00:38:00;99080;;;14.3;100.0
68320;BME280;55168;51.120;17.024;2023-08-06T00:39:00;99080;;;14.3;100.0
68320;BME280;55168;51.120;17.024;2023-08-06T00:40:00;99080;;;14.3;100.0
68320;BME280;55168;51.120;17.024;2023-08-06T00:41:00;99070;;;14.2;100.0
68320;BME280;55168;51.120;17.024;2023-08-06T00:42:00;99070;;;14.2;100.0
68320;BME280;55168;51.120;17.024;2023-08-06T00:43:00;99060;;;14.3;100.0
68320;BME280;55168;51.120;17.024;2023-08-06T00:44:00;99070;;;14.2;100.0
68320;BME280;55168;51.120;17.024;2023-08-06T00:45:00;99060;;;14.3;100.0
68320;BME280;55168;51.120;17.024;2023-08-06T00:46:00;99060;;;14.3;100.0
68320;BME280;55168;51.120;17.024;2023-08-06T00:47:00;99060;;;14.2;100.0
68320;BME280;55168;51.120;17.024;2023-08-06T00:48:00;99050;;;14.2;100.0
68320;BME280;55168;51.120;17.024;2023-08-06T00:49:00;99050;;;14.2;100.0
68320;BME280;55168;51.120;17.024;2023-08-06T00:50:00;99040;;;14.2;100.0
68320;BME280;55168;51.120;17.024;2023-08-06T00:51:00;99040;;;14.2;100.0
68320;BME280;55168;51.120;17.024;2023-08-06T00:52:00;99030;;;14.2;100.0
68320;BME280;55168;51.120;17.024;2023-08-06T00:53:00;99030;;;14.2;100.0
68320;BME280;55168;51.120;17.024;2023-08-06T00:54:00;99020;;;14.2;100.0
68320;BME280;55168;51.120;17.024;2023-08-06T00:55:00;99020;;;14.2;100.0
68320;BME280;55168;51.120;17.024;2023-08-06T00:56:00;99020;;;14.3;100.0
68320;BME280;55168;51.120;17.024;2023-08-06T00:57:01;99010;;;14.2;100.0
68320;BME280;55168;51.120;17.024;2023-08-06T00:58:00;99010;;;14.2;100.0
68320;BME280;55168;51.120;17.024;2023-08-06T00:59:00;99010;;;14.2;100.0
68320;BME280;55168;51.120;17.024;2023-08-06T01:00:00;99000;;;14.2;100.0
68320;BME280;55168;51.120;17.024;2023-08-06T01:01:00;99010;;;14.1;100.0
68320;BME280;55168;51.120;17.024;2023-08-06T01:02:00;99000;;;14.1;100.0
68320;BME280;55168;51.120;17.024;2023-08-06T01:03:00;99000;;;14.1;100.0
68320;BME280;55168;51.120;17.024;2023-08-06T01:04:00;98990;;;14.1;100.0
68320;BME280;55168;51.120;17.024;2023-08-06T01:05:00;98990;;;14.1;100.0
68320;BME280;55168;51.120;17.024;2023-08-06T01:06:00;98990;;;14.1;100.0
68320;BME280;55168;51.120;17.024;2023-08-06T01:07:02;98980;;;14.1;100.0
68320;BME280;55168;51.120;17.024;2023-08-06T01:09:01;98970;;;14.1;100.0
68320;BME280;55168;51.120;17.024;2023-08-06T01:10:07;98970;;;14.1;100.0
68320;BME280;55168;51.120;17.024;2023-08-06T01:13:06;98960;;;14.1;100.0
68320;BME280;55168;51.120;17.024;2023-08-06T01:14:18;98970;;;14.1;100.0
68320;BME280;55168;51.120;17.024;2023-08-06T01:15:07;98960;;;14.1;100.0
68320;BME280;55168;51.120;17.024;2023-08-06T01:16:00;98960;;;14.1;100.0
68320;BME280;55168;51.120;17.024;2023-08-06T01:17:00;98960;;;14.1;100.0
68320;BME280;55168;51.120;17.024;2023-08-06T01:18:00;98960;;;14.1;100.0
68320;BME280;55168;51.120;17.024;2023-08-06T01:19:00;98960;;;14.1;100.0
68320;BME280;55168;51.120;17.024;2023-08-06T01:20:00;98950;;;14.1;100.0
68320;BME280;55168;51.120;17.024;2023-08-06T01:21:00;98950;;;14.1;100.0
68320;BME280;55168;51.120;17.024;2023-08-06T01:22:00;98950;;;14.1;100.0
68320;BME280;55168;51.120;17.024;2023-08-06T01:23:00;98950;;;14.1;100.0
68320;BME280;55168;51.120;17.024;2023-08-06T01:24:00;98940;;;14.1;100.0
68320;BME280;55168;51.120;17.024;2023-08-06T01:25:00;98940;;;14.1;100.0
68320;BME280;55168;51.120;17.024;2023-08-06T01:26:03;98940;;;14.1;100.0
68320;BME280;55168;51.120;17.024;2023-08-06T01:27:03;98940;;;14.1;100.0
68320;BME280;55168;51.120;17.024;2023-08-06T01:28:03;98940;;;14.1;100.0
68320;BME280;55168;51.120;17.024;2023-08-06T01:29:17;98930;;;14.1;100.0
68320;BME280;55168;51.120;17.024;2023-08-06T01:30:03;98940;;;14.2;100.0
68320;BME280;55168;51.120;17.024;2023-08-06T01:31:01;98930;;;14.1;100.0
68320;BME280;55168;51.120;17.024;2023-08-06T01:32:00;98920;;;14.1;100.0
68320;BME280;55168;51.120;17.024;2023-08-06T01:33:00;98920;;;14.1;100.0
68320;BME280;55168;51.120;17.024;2023-08-06T01:34:00;98930;;;14.1;100.0
68320;BME280;55168;51.120;17.024;2023-08-06T01:35:00;98930;;;14.1;100.0
68320;BME280;55168;51.120;17.024;2023-08-06T01:36:00;98930;;;14.1;100.0
68320;BME280;55168;51.120;17.024;2023-08-06T01:37:00;98930;;;14.1;100.0
68320;BME280;55168;51.120;17.024;2023-08-06T01:38:00;98930;;;14.1;100.0
68320;BME280;55168;51.120;17.024;2023-08-06T01:39:00;98930;;;14.2;100.0
68320;BME280;55168;51.120;17.024;2023-08-06T01:40:00;98930;;;14.2;100.0
68320;BME280;55168;51.120;17.024;2023-08-06T01:41:00;98930;;;14.1;100.0
68320;BME280;55168;51.120;17.024;2023-08-06T01:42:00;98930;;;14.2;100.0
68320;BME280;55168;51.120;17.024;2023-08-06T01:43:00;98930;;;14.2;100.0
68320;BME280;55168;51.120;17.024;2023-08-06T01:44:00;98930;;;14.2;100.0
68320;BME280;55168;51.120;17.024;2023-08-06T01:45:00;98930;;;14.2;100.0
68320;BME280;55168;51.120;17.024;2023-08-06T01:46:00;98930;;;14.2;100.0
68320;BME280;55168;51.120;17.024;2023-08-06T01:47:00;98930;;;14.1;100.0
68320;BME280;55168;51.120;17.024;2023-08-06T01:48:00;98920;;;14.1;100.0
68320;BME280;55168;51.120;17.024;2023-08-06T01:49:00;98910;;;14.1;100.0
68320;BME280;55168;51.120;17.024;2023-08-06T01:50:00;98900;;;14.2;100.0
68320;BME280;55168;51.120;17.024;2023-08-06T01:51:00;98900;;;14.2;100.0
68320;BME280;55168;51.120;17.024;2023-08-06T01:52:00;98900;;;14.2;100.0
68320;BME280;55168;51.120;17.024;2023-08-06T01:53:00;98890;;;14.2;100.0
68320;BME280;55168;51.120;17.024;2023-08-06T01:54:00;98900;;;14.2;100.0
68320;BME280;55168;51.120;17.024;2023-08-06T01:55:00;98900;;;14.2;100.0
68320;BME280;55168;51.120;17.024;2023-08-06T01:56:00;98900;;;14.1;100.0
68320;BME280;55168;51.120;17.024;2023-08-06T01:57:00;98900;;;14.1;100.0
68320;BME280;55168;51.120;17.024;2023-08-06T01:58:00;98910;;;14.1;100.0
68320;BME280;55168;51.120;17.024;2023-08-06T01:59:00;98900;;;14.1;100.0
68320;BME280;55168;51.120;17.024;2023-08-06T02:00:00;98890;;;14.1;100.0
68320;BME280;55168;51.120;17.024;2023-08-06T02:01:00;98900;;;14.1;100.0
68320;BME280;55168;51.120;17.024;2023-08-06T02:02:00;98890;;;14.1;100.0
68320;BME280;55168;51.120;17.024;2023-08-06T02:03:00;98900;;;14.1;100.0
68320;BME280;55168;51.120;17.024;2023-08-06T02:04:00;98900;;;14.1;100.0
68320;BME280;55168;51.120;17.024;2023-08-06T02:05:00;98910;;;14.2;100.0
68320;BME280;55168;51.120;17.024;2023-08-06T02:06:00;98910;;;14.2;100.0
68320;BME280;55168;51.120;17.024;2023-08-06T02:07:00;98910;;;14.1;100.0
68320;BME280;55168;51.120;17.024;2023-08-06T02:08:00;98910;;;14.1;100.0
68320;BME280;55168;51.120;17.024;2023-08-06T02:09:00;98910;;;14.1;100.0
68320;BME280;55168;51.120;17.024;2023-08-06T02:10:00;98910;;;14.1;100.0
68320;BME280;55168;51.120;17.024;2023-08-06T02:11:00;98910;;;14.1;100.0
68320;BME280;55168;51.120;17.024;2023-08-06T02:12:00;98910;;;14.1;100.0
68320;BME280;55168;51.120;17.024;2023-08-06T02:13:00;98900;;;14.2;100.0
68320;BME280;55168;51.120;17.024;2023-08-06T02:14:00;98900;;;14.2;100.0
68320;BME280;55168;51.120;17.024;2023-08-06T02:15:00;98900;;;14.2;100.0
68320;BME280;55168;51.120;17.024;2023-08-06T02:16:00;98890;;;14.2;100.0
68320;BME280;55168;51.120;17.024;2023-08-06T02:17:00;98880;;;14.1;100.0
68320;BME280;55168;51.120;17.024;2023-08-06T02:18:00;98880;;;14.2;100.0
68320;BME280;55168;51.120;17.024;2023-08-06T02:19:00;98870;;;14.2;100.0
68320;BME280;55168;51.120;17.024;2023-08-06T02:20:00;98870;;;14.2;100.0
68320;BME280;55168;51.120;17.024;2023-08-06T02:21:00;98860;;;14.1;100.0
68320;BME280;55168;51.120;17.024;2023-08-06T02:22:00;98850;;;14.1;100.0
68320;BME280;55168;51.120;17.024;2023-08-06T02:23:00;98850;;;14.1;100.0
68320;BME280;55168;51.120;17.024;2023-08-06T02:24:00;98840;;;14.1;100.0
68320;BME280;55168;51.120;17.024;2023-08-06T02:25:00;98840;;;14.1;100.0
68320;BME280;55168;51.120;17.024;2023-08-06T02:26:00;98840;;;14.1;100.0
68320;BME280;55168;51.120;17.024;2023-08-06T02:27:00;98830;;;14.1;100.0
68320;BME280;55168;51.120;17.024;2023-08-06T02:28:00;98830;;;14.1;100.0
68320;BME280;55168;51.120;17.024;2023-08-06T02:29:00;98830;;;14.1;100.0
68320;BME280;55168;51.120;17.024;2023-08-06T02:30:00;98830;;;14.1;100.0
68320;BME280;55168;51.120;17.024;2023-08-06T02:31:00;98830;;;14.1;100.0
68320;BME280;55168;51.120;17.024;2023-08-06T02:32:00;98820;;;14.1;100.0
68320;BME280;55168;51.120;17.024;2023-08-06T02:33:00;98820;;;14.1;100.0
68320;BME280;55168;51.120;17.024;2023-08-06T02:34:00;98810;;;14.1;100.0
68320;BME280;55168;51.120;17.024;2023-08-06T02:35:00;98800;;;14.1;100.0
68320;BME280;55168;51.120;17.024;2023-08-06T02:36:00;98800;;;14.0;100.0
68320;BME280;55168;51.120;17.024;2023-08-06T02:37:00;98790;;;14.0;100.0
68320;BME280;55168;51.120;17.024;2023-08-06T02:38:00;98770;;;14.0;100.0
68320;BME280;55168;51.120;17.024;2023-08-06T02:39:00;98770;;;14.0;100.0
68320;BME280;55168;51.120;17.024;2023-08-06T02:40:00;98780;;;14.0;100.0
68320;BME280;55168;51.120;17.024;2023-08-06T02:41:03;98780;;;14.1;100.0
68320;BME280;55168;51.120;17.024;2023-08-06T02:42:00;98780;;;14.1;100.0
68320;BME280;55168;51.120;17.024;2023-08-06T02:43:00;98780;;;14.1;100.0
68320;BME280;55168;51.120;17.024;2023-08-06T02:44:00;98780;;;14.0;100.0
68320;BME280;55168;51.120;17.024;2023-08-06T02:45:00;98770;;;14.0;100.0
68320;BME280;55168;51.120;17.024;2023-08-06T02:46:00;98780;;;14.0;100.0
68320;BME280;55168;51.120;17.024;2023-08-06T02:47:00;98780;;;14.0;100.0
68320;BME280;55168;51.120;17.024;2023-08-06T02:48:00;98770;;;13.9;100.0
68320;BME280;55168;51.120;17.024;2023-08-06T02:49:00;98770;;;14.0;100.0
68320;BME280;55168;51.120;17.024;2023-08-06T02:50:00;98770;;;14.0;100.0
68320;BME280;55168;51.120;17.024;2023-08-06T02:51:00;98760;;;14.0;100.0
68320;BME280;55168;51.120;17.024;2023-08-06T02:52:00;98770;;;14.0;100.0
68320;BME280;55168;51.120;17.024;2023-08-06T02:53:00;98770;;;14.0;100.0
68320;BME280;55168;51.120;17.024;2023-08-06T02:54:00;98780;;;14.0;100.0
68320;BME280;55168;51.120;17.024;2023-08-06T02:55:00;98780;;;14.0;100.0
68320;BME280;55168;51.120;17.024;2023-08-06T02:56:00;98780;;;14.0;100.0
68320;BME280;55168;51.120;17.024;2023-08-06T02:57:00;98780;;;14.0;100.0
68320;BME280;55168;51.120;17.024;2023-08-06T02:58:01;98780;;;14.0;100.0
68320;BME280;55168;51.120;17.024;2023-08-06T02:59:00;98780;;;13.9;100.0
68320;BME280;55168;51.120;17.024;2023-08-06T03:00:00;98770;;;13.9;100.0
68320;BME280;55168;51.120;17.024;2023-08-06T03:02:00;98780;;;13.9;100.0
68320;BME280;55168;51.120;17.024;2023-08-06T03:03:00;98770;;;13.9;100.0
68320;BME280;55168;51.120;17.024;2023-08-06T03:04:00;98780;;;13.9;100.0
68320;BME280;55168;51.120;17.024;2023-08-06T03:05:00;98780;;;13.9;100.0
68320;BME280;55168;51.120;17.024;2023-08-06T03:06:00;98780;;;13.9;100.0
68320;BME280;55168;51.120;17.024;2023-08-06T03:07:00;98780;;;14.0;100.0
68320;BME280;55168;51.120;17.024;2023-08-06T03:08:00;98780;;;14.0;100.0
68320;BME280;55168;51.120;17.024;2023-08-06T03:09:00;98780;;;14.0;100.0
68320;BME280;55168;51.120;17.024;2023-08-06T03:10:00;98780;;;14.0;100.0
68320;BME280;55168;51.120;17.024;2023-08-06T03:11:00;98780;;;13.9;100.0
68320;BME280;55168;51.120;17.024;2023-08-06T03:12:00;98780;;;13.9;100.0
68320;BME280;55168;51.120;17.024;2023-08-06T03:13:00;98780;;;13.9;100.0
68320;BME280;55168;51.120;17.024;2023-08-06T03:14:00;98780;;;13.9;100.0
68320;BME280;55168;51.120;17.024;2023-08-06T03:15:00;98780;;;13.9;100.0
68320;BME280;55168;51.120;17.024;2023-08-06T03:16:00;98780;;;13.9;100.0
68320;BME280;55168;51.120;17.024;2023-08-06T03:17:00;98780;;;13.9;100.0
68320;BME280;55168;51.120;17.024;2023-08-06T03:18:00;98790;;;13.9;100.0
68320;BME280;55168;51.120;17.024;2023-08-06T03:19:00;98780;;;13.9;100.0
68320;BME280;55168;51.120;17.024;2023-08-06T03:20:00;98780;;;13.8;100.0
68320;BME280;55168;51.120;17.024;2023-08-06T03:21:00;98770;;;13.8;100.0
68320;BME280;55168;51.120;17.024;2023-08-06T03:22:00;98770;;;13.8;100.0
68320;BME280;55168;51.120;17.024;2023-08-06T03:23:00;98760;;;13.8;100.0
68320;BME280;55168;51.120;17.024;2023-08-06T03:24:00;98740;;;13.7;100.0
68320;BME280;55168;51.120;17.024;2023-08-06T03:25:00;98750;;;13.7;100.0
68320;BME280;55168;51.120;17.024;2023-08-06T03:26:03;98720;;;13.7;100.0
68320;BME280;55168;51.120;17.024;2023-08-06T03:27:00;98740;;;13.8;100.0
68320;BME280;55168;51.120;17.024;2023-08-06T03:28:00;98750;;;13.8;100.0
68320;BME280;55168;51.120;17.024;2023-08-06T03:29:00;98750;;;13.8;100.0
68320;BME280;55168;51.120;17.024;2023-08-06T03:30:00;98760;;;13.8;100.0
68320;BME280;55168;51.120;17.024;2023-08-06T03:31:03;98760;;;13.8;100.0
68320;BME280;55168;51.120;17.024;2023-08-06T03:32:00;98760;;;13.8;100.0
68320;BME280;55168;51.120;17.024;2023-08-06T03:33:00;98760;;;13.8;100.0
68320;BME280;55168;51.120;17.024;2023-08-06T03:34:00;98750;;;13.8;100.0
68320;BME280;55168;51.120;17.024;2023-08-06T03:35:00;98750;;;13.8;100.0
68320;BME280;55168;51.120;17.024;2023-08-06T03:36:00;98740;;;13.8;100.0
68320;BME280;55168;51.120;17.024;2023-08-06T03:37:00;98750;;;13.8;100.0
68320;BME280;55168;51.120;17.024;2023-08-06T03:38:00;98740;;;13.8;100.0
68320;BME280;55168;51.120;17.024;2023-08-06T03:39:00;98740;;;13.8;100.0
68320;BME280;55168;51.120;17.024;2023-08-06T03:40:00;98740;;;13.8;100.0
68320;BME280;55168;51.120;17.024;2023-08-06T03:41:00;98740;;;13.8;100.0
68320;BME280;55168;51.120;17.024;2023-08-06T03:42:00;98740;;;13.8;100.0
68320;BME280;55168;51.120;17.024;2023-08-06T03:43:00;98740;;;13.8;100.0
68320;BME280;55168;51.120;17.024;2023-08-06T03:44:00;98740;;;13.7;100.0
68320;BME280;55168;51.120;17.024;2023-08-06T03:45:00;98730;;;13.7;100.0
68320;BME280;55168;51.120;17.024;2023-08-06T03:46:00;98740;;;13.7;100.0
68320;BME280;55168;51.120;17.024;2023-08-06T03:47:00;98730;;;13.7;100.0
68320;BME280;55168;51.120;17.024;2023-08-06T03:48:00;98730;;;13.6;100.0
68320;BME280;55168;51.120;17.024;2023-08-06T03:49:00;98730;;;13.7;100.0
68320;BME280;55168;51.120;17.024;2023-08-06T03:50:00;98740;;;13.6;100.0
68320;BME280;55168;51.120;17.024;2023-08-06T03:51:00;98740;;;13.6;100.0
68320;BME280;55168;51.120;17.024;2023-08-06T03:52:00;98730;;;13.7;100.0
68320;BME280;55168;51.120;17.024;2023-08-06T03:53:00;98740;;;13.7;100.0
68320;BME280;55168;51.120;17.024;2023-08-06T03:54:00;98740;;;13.7;100.0
68320;BME280;55168;51.120;17.024;2023-08-06T03:55:00;98750;;;13.8;100.0
68320;BME280;55168;51.120;17.024;2023-08-06T03:56:00;98740;;;13.7;100.0
68320;BME280;55168;51.120;17.024;2023-08-06T03:57:00;98750;;;13.7;100.0
68320;BME280;55168;51.120;17.024;2023-08-06T03:58:00;98750;;;13.7;100.0
68320;BME280;55168;51.120;17.024;2023-08-06T03:59:00;98760;;;13.7;100.0
68320;BME280;55168;51.120;17.024;2023-08-06T04:00:00;98760;;;13.7;100.0
68320;BME280;55168;51.120;17.024;2023-08-06T04:01:00;98760;;;13.7;100.0
68320;BME280;55168;51.120;17.024;2023-08-06T04:02:00;98760;;;13.7;100.0
68320;BME280;55168;51.120;17.024;2023-08-06T04:03:00;98760;;;13.7;100.0
68320;BME280;55168;51.120;17.024;2023-08-06T04:04:00;98760;;;13.7;100.0
68320;BME280;55168;51.120;17.024;2023-08-06T04:05:00;98760;;;13.7;100.0
68320;BME280;55168;51.120;17.024;2023-08-06T04:06:02;98760;;;13.7;100.0
68320;BME280;55168;51.120;17.024;2023-08-06T04:07:00;98750;;;13.7;100.0
68320;BME280;55168;51.120;17.024;2023-08-06T04:08:00;98750;;;13.6;100.0
68320;BME280;55168;51.120;17.024;2023-08-06T04:09:00;98750;;;13.7;100.0
68320;BME280;55168;51.120;17.024;2023-08-06T04:10:01;98740;;;13.7;100.0
68320;BME280;55168;51.120;17.024;2023-08-06T04:11:00;98740;;;13.7;100.0
68320;BME280;55168;51.120;17.024;2023-08-06T04:12:00;98730;;;13.7;100.0
68320;BME280;55168;51.120;17.024;2023-08-06T04:13:00;98720;;;13.7;100.0
68320;BME280;55168;51.120;17.024;2023-08-06T04:14:00;98720;;;13.7;100.0
68320;BME280;55168;51.120;17.024;2023-08-06T04:15:00;98730;;;13.7;100.0
68320;BME280;55168;51.120;17.024;2023-08-06T04:16:00;98730;;;13.7;100.0
68320;BME280;55168;51.120;17.024;2023-08-06T04:17:00;98730;;;13.7;100.0
68320;BME280;55168;51.120;17.024;2023-08-06T04:18:00;98740;;;13.7;100.0
68320;BME280;55168;51.120;17.024;2023-08-06T04:19:00;98730;;;13.6;100.0
68320;BME280;55168;51.120;17.024;2023-08-06T04:20:00;98730;;;13.6;100.0
68320;BME280;55168;51.120;17.024;2023-08-06T04:21:01;98730;;;13.6;100.0
68320;BME280;55168;51.120;17.024;2023-08-06T04:22:00;98740;;;13.6;100.0
68320;BME280;55168;51.120;17.024;2023-08-06T04:23:04;98740;;;13.6;100.0
68320;BME280;55168;51.120;17.024;2023-08-06T04:24:00;98750;;;13.6;100.0
68320;BME280;55168;51.120;17.024;2023-08-06T04:25:00;98760;;;13.7;100.0
68320;BME280;55168;51.120;17.024;2023-08-06T04:26:00;98750;;;13.6;100.0
68320;BME280;55168;51.120;17.024;2023-08-06T04:27:00;98760;;;13.7;100.0
68320;BME280;55168;51.120;17.024;2023-08-06T04:28:00;98770;;;13.6;100.0
68320;BME280;55168;51.120;17.024;2023-08-06T04:29:00;98770;;;13.6;100.0
68320;BME280;55168;51.120;17.024;2023-08-06T04:30:00;98770;;;13.6;100.0
68320;BME280;55168;51.120;17.024;2023-08-06T04:31:00;98770;;;13.6;100.0
68320;BME280;55168;51.120;17.024;2023-08-06T04:32:00;98770;;;13.6;100.0
68320;BME280;55168;51.120;17.024;2023-08-06T04:33:00;98760;;;13.6;100.0
68320;BME280;55168;51.120;17.024;2023-08-06T04:34:00;98760;;;13.7;100.0
68320;BME280;55168;51.120;17.024;2023-08-06T04:35:00;98770;;;13.6;100.0
68320;BME280;55168;51.120;17.024;2023-08-06T04:36:00;98770;;;13.7;100.0
68320;BME280;55168;51.120;17.024;2023-08-06T04:37:00;98770;;;13.6;100.0
68320;BME280;55168;51.120;17.024;2023-08-06T04:38:00;98760;;;13.7;100.0
68320;BME280;55168;51.120;17.024;2023-08-06T04:39:00;98770;;;13.7;100.0
68320;BME280;55168;51.120;17.024;2023-08-06T04:40:00;98760;;;13.6;100.0
68320;BME280;55168;51.120;17.024;2023-08-06T04:41:01;98760;;;13.6;100.0
68320;BME280;55168;51.120;17.024;2023-08-06T04:42:00;98750;;;13.7;100.0
68320;BME280;55168;51.120;17.024;2023-08-06T04:43:00;98750;;;13.7;100.0
68320;BME280;55168;51.120;17.024;2023-08-06T04:44:00;98750;;;13.7;100.0
68320;BME280;55168;51.120;17.024;2023-08-06T04:45:01;98750;;;13.6;100.0
68320;BME280;55168;51.120;17.024;2023-08-06T04:46:00;98740;;;13.6;100.0
68320;BME280;55168;51.120;17.024;2023-08-06T04:47:00;98740;;;13.6;100.0
68320;BME280;55168;51.120;17.024;2023-08-06T04:48:00;98730;;;13.6;100.0
68320;BME280;55168;51.120;17.024;2023-08-06T04:49:00;98720;;;13.6;100.0
68320;BME280;55168;51.120;17.024;2023-08-06T04:50:00;98730;;;13.6;100.0
68320;BME280;55168;51.120;17.024;2023-08-06T04:51:00;98720;;;13.6;100.0
68320;BME280;55168;51.120;17.024;2023-08-06T04:52:00;98700;;;13.6;100.0
68320;BME280;55168;51.120;17.024;2023-08-06T04:53:00;98710;;;13.6;100.0
68320;BME280;55168;51.120;17.024;2023-08-06T04:54:00;98710;;;13.6;100.0
68320;BME280;55168;51.120;17.024;2023-08-06T04:55:00;98710;;;13.6;100.0
68320;BME280;55168;51.120;17.024;2023-08-06T04:56:00;98710;;;13.6;100.0
68320;BME280;55168;51.120;17.024;2023-08-06T04:57:00;98700;;;13.7;100.0
68320;BME280;55168;51.120;17.024;2023-08-06T04:58:00;98700;;;13.6;100.0
68320;BME280;55168;51.120;17.024;2023-08-06T04:59:00;98690;;;13.6;100.0
68320;BME280;55168;51.120;17.024;2023-08-06T05:00:00;98690;;;13.6;100.0
68320;BME280;55168;51.120;17.024;2023-08-06T05:01:00;98710;;;13.6;100.0
68320;BME280;55168;51.120;17.024;2023-08-06T05:02:00;98720;;;13.6;100.0
68320;BME280;55168;51.120;17.024;2023-08-06T05:03:00;98730;;;13.6;100.0
68320;BME280;55168;51.120;17.024;2023-08-06T05:04:00;98730;;;13.6;100.0
68320;BME280;55168;51.120;17.024;2023-08-06T05:05:00;98730;;;13.6;100.0
68320;BME280;55168;51.120;17.024;2023-08-06T05:06:00;98730;;;13.6;100.0
68320;BME280;55168;51.120;17.024;2023-08-06T05:07:00;98730;;;13.6;100.0
68320;BME280;55168;51.120;17.024;2023-08-06T05:08:00;98720;;;13.6;100.0
68320;BME280;55168;51.120;17.024;2023-08-06T05:09:00;98720;;;13.6;100.0
68320;BME280;55168;51.120;17.024;2023-08-06T05:10:00;98720;;;13.6;100.0
68320;BME280;55168;51.120;17.024;2023-08-06T05:11:00;98710;;;13.7;100.0
68320;BME280;55168;51.120;17.024;2023-08-06T05:12:01;98710;;;13.6;100.0
68320;BME280;55168;51.120;17.024;2023-08-06T05:13:00;98710;;;13.6;100.0
68320;BME280;55168;51.120;17.024;2023-08-06T05:14:00;98710;;;13.7;100.0
68320;BME280;55168;51.120;17.024;2023-08-06T05:15:00;98710;;;13.7;100.0
68320;BME280;55168;51.120;17.024;2023-08-06T05:16:00;98710;;;13.6;100.0
68320;BME280;55168;51.120;17.024;2023-08-06T05:17:00;98710;;;13.7;100.0
68320;BME280;55168;51.120;17.024;2023-08-06T05:18:00;98710;;;13.7;100.0
68320;BME280;55168;51.120;17.024;2023-08-06T05:19:00;98710;;;13.7;100.0
68320;BME280;55168;51.120;17.024;2023-08-06T05:20:00;98700;;;13.7;100.0
68320;BME280;55168;51.120;17.024;2023-08-06T05:21:00;98700;;;13.7;100.0
68320;BME280;55168;51.120;17.024;2023-08-06T05:22:00;98700;;;13.7;100.0
68320;BME280;55168;51.120;17.024;2023-08-06T05:23:00;98700;;;13.7;100.0
68320;BME280;55168;51.120;17.024;2023-08-06T05:24:00;98690;;;13.7;100.0
68320;BME280;55168;51.120;17.024;2023-08-06T05:25:00;98690;;;13.6;100.0
68320;BME280;55168;51.120;17.024;2023-08-06T05:26:00;98690;;;13.6;100.0
68320;BME280;55168;51.120;17.024;2023-08-06T05:27:00;98690;;;13.7;100.0
68320;BME280;55168;51.120;17.024;2023-08-06T05:28:00;98680;;;13.6;100.0
68320;BME280;55168;51.120;17.024;2023-08-06T05:29:00;98670;;;13.6;100.0
68320;BME280;55168;51.120;17.024;2023-08-06T05:30:00;98680;;;13.6;100.0
68320;BME280;55168;51.120;17.024;2023-08-06T05:31:04;98670;;;13.6;100.0
68320;BME280;55168;51.120;17.024;2023-08-06T05:32:00;98660;;;13.6;100.0
68320;BME280;55168;51.120;17.024;2023-08-06T05:33:00;98670;;;13.6;100.0
68320;BME280;55168;51.120;17.024;2023-08-06T05:34:00;98670;;;13.6;100.0